CYDN

Dauphin Barker Airport

Dauphin, Manitoba, Canada
METAR CYDN 201500Z AUTO 22008KT 9SM CLR M17/M21 A3008 RMK SLP218
Observed Flight Rules
Feb-20 @ 15:00 UTC (22 hours ago) Visual Flight Rules
Wind Visibility Clouds
220° at 8 knots 9 miles
  • Clear skies
Temperatures Readings
Current -17°C / 1°F
Dewpoint -21°C / -6°F
Humidity 71%
Altimeter 30.08" Hg
Pressure 1021.8 hPa
Elevation 305
METAR CYDN 201500Z AUTO 22008KT 9SM CLR M17/M21 A3008 RMK SLP218
Observed Flight Rules
Feb-20 @ 15:00 UTC
(22 hours ago)
VFR
Wind Visibility
220° at 8 knots 9 miles
Clouds
  • Clear skies
Temperature Dewpoint
-17°C / 1°F -21°C / -6°F
Humidity Altimeter Pressure
71% 30.08" Hg 1021.8 hPa